GMTN/TTU METAR and TAF weather

Enter ICAO airport designator
Station Type Date Time Source
GMTN METAR 2020/01/22 12:00 UTC NOAA

GMTN 221200Z VRB02KT 9999 SCT020 BKN033 14/11 Q1015 NOSIG


Station Type Date Time Source
GMTN Decoded METAR 2020/01/22 12:00 UTC NOAA

Tetuan / Sania Ramel, Morocco (GMTN) 35-35N 005-20W 10M
Jan 22, 2020 - 07:00 AM EST / 2020.01.22 1200 UTC
Wind: Variable at 2 MPH (2 KT):0
Visibility: greater than 7 mile(s):0
Sky conditions: mostly cloudy
Temperature: 57 F (14 C)
Dew Point: 51 F (11 C)
Relative Humidity: 82%
Pressure (altimeter): 29.97 in. Hg (1015 hPa)
ob: GMTN 221200Z VRB02KT 9999 SCT020 BKN033 14/11 Q1015 NOSIG
cycle: 12

Station Type Date Time Source
GMTN TAF UTC NOAA

Error!

Example: see airport list